createdAt,value
2019-04-05T00:01:44.066Z,14.70
2019-04-05T00:04:16.317Z,14.70
2019-04-05T00:06:48.324Z,14.72
2019-04-05T00:09:20.314Z,14.73
2019-04-05T00:11:52.447Z,14.74
2019-04-05T00:14:24.403Z,14.74
2019-04-05T00:16:56.373Z,14.72
2019-04-05T00:19:28.334Z,14.71
2019-04-05T00:22:00.275Z,14.70
2019-04-05T00:24:32.288Z,14.68
2019-04-05T00:27:04.316Z,14.69
2019-04-05T00:29:36.345Z,14.68
2019-04-05T00:32:08.312Z,14.69
2019-04-05T00:34:40.561Z,14.69
2019-04-05T00:37:12.827Z,14.68
2019-04-05T00:39:44.944Z,14.69
2019-04-05T00:42:17.214Z,14.68
2019-04-05T00:44:49.627Z,14.68
2019-04-05T00:51:41.420Z,14.66
2019-04-05T00:54:13.480Z,14.67
2019-04-05T00:56:45.499Z,14.67
2019-04-05T00:59:17.472Z,14.68
2019-04-05T01:01:49.897Z,14.68
2019-04-05T01:04:21.909Z,14.68
2019-04-05T01:06:53.963Z,14.67
2019-04-05T01:09:26.203Z,14.66
2019-04-05T01:11:58.188Z,14.63
2019-04-05T01:14:31.059Z,14.63
2019-04-05T01:17:03.474Z,14.61
2019-04-05T01:19:37.955Z,14.59
2019-04-05T01:22:13.766Z,14.57
2019-04-05T01:24:46.364Z,14.53
2019-04-05T01:27:19.285Z,14.53
2019-04-05T01:29:51.238Z,14.50
2019-04-05T01:32:23.228Z,14.48
2019-04-05T01:34:55.444Z,14.47
2019-04-05T01:37:27.925Z,14.44
2019-04-05T01:40:00.486Z,14.42
2019-04-05T01:42:32.423Z,14.40
2019-04-05T01:45:06.957Z,14.40
2019-04-05T01:47:38.988Z,14.37
2019-04-05T01:50:11.651Z,14.35
2019-04-05T01:52:44.255Z,14.34
2019-04-05T01:55:16.294Z,14.31
2019-04-05T01:57:48.253Z,14.31
2019-04-05T02:00:21.248Z,14.30
2019-04-05T02:02:53.186Z,14.28
2019-04-05T02:05:25.339Z,14.26
2019-04-05T02:07:57.596Z,14.24
2019-04-05T02:10:30.200Z,14.23
2019-04-05T02:13:02.376Z,14.21
2019-04-05T02:15:37.001Z,14.21
2019-04-05T02:18:09.003Z,14.21
2019-04-05T02:20:41.059Z,14.23
2019-04-05T02:23:13.076Z,14.21
2019-04-05T02:25:45.063Z,14.21
2019-04-05T02:28:17.120Z,14.19
2019-04-05T02:30:49.115Z,14.19
2019-04-05T02:33:21.130Z,14.18
2019-04-05T02:35:53.081Z,14.18
2019-04-05T02:38:25.128Z,14.19
2019-04-05T02:40:59.767Z,14.17
2019-04-05T02:43:35.761Z,14.14
2019-04-05T02:46:22.826Z,14.13
2019-04-05T02:48:46.064Z,14.11
2019-04-05T02:51:23.184Z,14.08
2019-04-05T02:53:58.459Z,14.08
2019-04-05T02:56:31.855Z,14.07
2019-04-05T02:59:05.404Z,14.05
2019-04-05T03:01:37.705Z,14.04
2019-04-05T03:04:10.176Z,14.02
2019-04-05T03:06:42.468Z,14.00
2019-04-05T03:09:14.931Z,13.99
2019-04-05T03:11:47.692Z,13.98
2019-04-05T03:14:21.030Z,13.96
2019-04-05T03:16:55.884Z,13.93
2019-04-05T03:19:31.887Z,13.91
2019-04-05T03:22:08.140Z,13.87
2019-04-05T03:24:44.174Z,13.85
2019-04-05T03:27:21.078Z,13.83
2019-04-05T03:29:54.148Z,13.82
2019-04-05T03:32:26.935Z,13.80
2019-04-05T03:34:59.392Z,13.79
2019-04-05T03:37:31.784Z,13.76
2019-04-05T03:40:06.032Z,13.74
2019-04-05T03:42:38.541Z,13.72
2019-04-05T03:45:10.968Z,13.70
2019-04-05T03:47:43.329Z,13.70
2019-04-05T03:50:15.596Z,13.68
2019-04-05T03:52:47.692Z,13.65
2019-04-05T03:55:19.663Z,13.65
2019-04-05T03:57:51.674Z,13.61
2019-04-05T04:00:23.693Z,13.61
2019-04-05T04:02:55.781Z,13.60
2019-04-05T04:05:27.988Z,13.59
2019-04-05T04:08:00.164Z,13.55
2019-04-05T04:10:32.280Z,13.54
2019-04-05T04:13:04.977Z,13.52
2019-04-05T04:15:37.067Z,13.51
2019-04-05T04:18:09.484Z,13.51
2019-04-05T04:20:48.924Z,13.48
2019-04-05T04:23:25.430Z,13.47
2019-04-05T04:25:57.993Z,13.47
2019-04-05T04:28:31.326Z,13.46
2019-04-05T04:31:04.059Z,13.44
2019-04-05T04:33:36.791Z,13.44
2019-04-05T04:36:08.606Z,13.42
2019-04-05T04:38:41.002Z,13.42
2019-04-05T04:41:13.458Z,13.40
2019-04-05T04:43:46.135Z,13.38
2019-04-05T04:46:18.807Z,13.37
2019-04-05T04:48:50.773Z,13.37
2019-04-05T04:51:23.331Z,13.37
2019-04-05T04:53:55.693Z,13.37
2019-04-05T04:56:28.034Z,13.38
2019-04-05T04:59:00.358Z,13.38
2019-04-05T05:01:32.334Z,13.39
2019-04-05T05:04:04.631Z,13.42
2019-04-05T05:06:36.920Z,13.42
2019-04-05T05:09:09.083Z,13.45
2019-04-05T05:11:45.406Z,13.48
2019-04-05T05:14:18.033Z,13.51
2019-04-05T05:16:50.285Z,13.54
2019-04-05T05:19:22.471Z,13.58
2019-04-05T05:21:54.692Z,13.59
2019-04-05T05:24:27.803Z,13.59
2019-04-05T05:26:59.794Z,13.60
2019-04-05T05:29:32.075Z,13.63
2019-04-05T05:32:04.679Z,13.67
2019-04-05T05:34:36.985Z,13.73
2019-04-05T05:37:09.158Z,13.76
2019-04-05T05:39:41.349Z,13.80
2019-04-05T05:42:13.587Z,13.85
2019-04-05T05:44:45.527Z,13.87
2019-04-05T05:47:17.487Z,13.90
2019-04-05T05:49:49.473Z,13.92
2019-04-05T05:52:21.787Z,13.95
2019-04-05T05:54:53.743Z,13.99
2019-04-05T05:57:25.830Z,14.02
2019-04-05T06:00:00.219Z,14.03
2019-04-05T06:02:31.613Z,14.05
2019-04-05T06:05:03.733Z,14.06
2019-04-05T06:07:36.271Z,14.07
2019-04-05T06:10:09.137Z,14.07
2019-04-05T06:12:41.123Z,14.05
2019-04-05T06:15:13.542Z,14.06
2019-04-05T06:17:45.509Z,14.07
2019-04-05T06:20:18.425Z,14.10
2019-04-05T06:22:50.406Z,14.13
2019-04-05T06:25:22.380Z,14.14
2019-04-05T06:27:54.667Z,14.18
2019-04-05T06:30:28.767Z,14.21
2019-04-05T06:33:00.564Z,14.25
2019-04-05T06:35:32.583Z,14.28
2019-04-05T06:38:04.680Z,14.32
2019-04-05T06:40:41.194Z,14.36
2019-04-05T06:43:11.095Z,14.41
2019-04-05T06:45:43.329Z,14.43
2019-04-05T06:48:19.448Z,14.46
2019-04-05T06:50:49.560Z,14.51
2019-04-05T06:53:21.884Z,14.55
2019-04-05T06:55:53.895Z,14.58
2019-04-05T06:58:29.092Z,14.64
2019-04-05T07:01:00.648Z,14.67
2019-04-05T07:03:32.828Z,14.71
2019-04-05T07:06:04.772Z,14.76
2019-04-05T07:08:36.749Z,14.81
2019-04-05T07:11:08.705Z,14.86
2019-04-05T07:13:40.660Z,14.91
2019-04-05T07:16:12.635Z,15.00
2019-04-05T07:18:44.587Z,15.09
2019-04-05T07:21:17.462Z,15.16
2019-04-05T07:23:49.490Z,15.24
2019-04-05T07:26:21.594Z,15.34
2019-04-05T07:28:53.851Z,15.44
2019-04-05T07:31:25.800Z,15.53
2019-04-05T07:33:58.026Z,15.63
2019-04-05T07:36:29.972Z,15.72
2019-04-05T07:39:02.211Z,15.81
2019-04-05T07:41:34.224Z,15.88
2019-04-05T07:44:06.280Z,15.94
2019-04-05T07:46:38.217Z,15.96
2019-04-05T07:49:10.229Z,15.94
2019-04-05T07:51:42.174Z,15.93
2019-04-05T07:54:14.131Z,15.92
2019-04-05T07:56:46.637Z,15.96
2019-04-05T07:59:20.899Z,16.00
2019-04-05T08:01:52.580Z,16.02
2019-04-05T08:04:24.529Z,16.06
2019-04-05T08:07:01.359Z,16.10
2019-04-05T08:09:35.562Z,16.12
2019-04-05T08:12:08.154Z,16.16
2019-04-05T08:14:40.974Z,16.20
2019-04-05T08:17:12.968Z,16.26
2019-04-05T08:19:45.092Z,16.33
2019-04-05T08:22:17.307Z,16.37
2019-04-05T08:24:49.445Z,16.41
2019-04-05T08:27:21.447Z,16.48
2019-04-05T08:29:53.986Z,16.58
2019-04-05T08:32:25.966Z,16.65
2019-04-05T08:34:57.930Z,16.71
2019-04-05T08:37:29.951Z,16.79
2019-04-05T08:40:01.911Z,16.86
2019-04-05T08:42:34.119Z,16.93
2019-04-05T08:45:08.991Z,16.94
2019-04-05T08:47:40.945Z,16.94
2019-04-05T08:50:13.227Z,16.98
2019-04-05T08:52:45.428Z,17.04
2019-04-05T08:55:17.405Z,17.08
2019-04-05T08:57:49.934Z,17.06
2019-04-05T09:00:22.622Z,17.09
2019-04-05T09:02:54.668Z,17.12
2019-04-05T09:05:26.687Z,17.16
2019-04-05T09:07:58.644Z,17.18
2019-04-05T09:10:30.586Z,17.21
2019-04-05T09:13:02.608Z,17.24
2019-04-05T09:15:34.565Z,17.26
2019-04-05T09:18:07.498Z,17.27
2019-04-05T09:20:39.453Z,17.31
2019-04-05T09:23:11.422Z,17.35
2019-04-05T09:25:43.378Z,17.36
2019-04-05T09:28:15.373Z,17.37
2019-04-05T09:30:47.319Z,17.41
2019-04-05T09:33:19.380Z,17.42
2019-04-05T09:35:51.407Z,17.44
2019-04-05T09:38:23.815Z,17.48
2019-04-05T09:40:55.795Z,17.51
2019-04-05T09:43:28.013Z,17.55
2019-04-05T09:46:00.061Z,17.61
2019-04-05T09:48:32.806Z,17.65
2019-04-05T09:51:07.104Z,17.68
2019-04-05T09:53:39.090Z,17.71
2019-04-05T09:56:11.223Z,17.75
2019-04-05T09:58:43.165Z,17.57
2019-04-05T10:01:15.401Z,17.79
2019-04-05T10:03:47.422Z,17.78
2019-04-05T10:06:19.453Z,17.78
2019-04-05T10:08:51.409Z,17.79
2019-04-05T10:11:23.535Z,17.85
2019-04-05T10:13:55.489Z,17.94
2019-04-05T10:16:27.496Z,18.05
2019-04-05T10:18:59.749Z,18.18
2019-04-05T10:21:31.734Z,18.30
2019-04-05T10:24:04.015Z,18.37
2019-04-05T10:26:35.969Z,18.47
2019-04-05T10:29:07.992Z,18.57
2019-04-05T10:31:39.967Z,18.68
2019-04-05T10:34:11.919Z,18.77
2019-04-05T10:36:43.895Z,18.83
2019-04-05T10:39:15.849Z,18.89
2019-04-05T10:41:47.812Z,18.92
2019-04-05T10:44:19.780Z,18.94
2019-04-05T10:46:51.811Z,18.97
2019-04-05T10:49:23.850Z,18.99
2019-04-05T10:51:55.896Z,19.01
2019-04-05T10:54:27.844Z,19.03
2019-04-05T10:56:59.796Z,19.09
2019-04-05T10:59:31.827Z,19.17
2019-04-05T11:02:03.866Z,19.21
2019-04-05T11:04:35.822Z,19.24
2019-04-05T11:07:07.778Z,19.27
2019-04-05T11:09:39.750Z,19.29
2019-04-05T11:12:12.362Z,19.32
2019-04-05T11:14:45.046Z,19.36
2019-04-05T11:17:16.994Z,19.39
2019-04-05T11:19:49.052Z,19.45
2019-04-05T11:22:21.200Z,19.47
2019-04-05T11:24:53.216Z,19.53
2019-04-05T11:27:25.228Z,19.59
2019-04-05T11:29:57.908Z,19.66
2019-04-05T11:32:30.816Z,19.74
2019-04-05T11:35:02.843Z,19.79
2019-04-05T11:37:35.397Z,19.83
2019-04-05T11:40:10.354Z,19.85
2019-04-05T11:42:43.755Z,19.91
2019-04-05T11:45:16.072Z,19.75
2019-04-05T11:47:49.008Z,20.00
2019-04-05T11:50:33.557Z,20.02
2019-04-05T11:52:54.938Z,20.03
2019-04-05T11:55:27.177Z,19.99
2019-04-05T11:58:01.967Z,19.98
2019-04-05T12:00:38.527Z,19.95
2019-04-05T12:03:18.488Z,19.90
2019-04-05T12:05:50.709Z,19.86
2019-04-05T12:08:24.110Z,19.84
2019-04-05T12:10:56.086Z,19.84
2019-04-05T12:13:28.103Z,19.84
2019-04-05T12:16:00.357Z,19.86
2019-04-05T12:18:34.783Z,19.88
2019-04-05T12:21:07.007Z,19.92
2019-04-05T12:23:39.604Z,19.95
2019-04-05T12:26:15.863Z,19.95
2019-04-05T12:28:48.419Z,19.91
2019-04-05T12:31:21.057Z,19.86
2019-04-05T12:33:53.035Z,19.86
2019-04-05T12:36:25.281Z,19.86
2019-04-05T12:38:57.227Z,19.85
2019-04-05T12:41:29.200Z,19.85
2019-04-05T12:44:01.174Z,19.86
2019-04-05T12:46:33.132Z,19.88
2019-04-05T12:49:05.086Z,19.88
2019-04-05T12:51:37.045Z,19.91
2019-04-05T12:54:09.259Z,19.92
2019-04-05T12:56:41.332Z,19.95
2019-04-05T12:59:13.292Z,19.96
2019-04-05T13:01:45.660Z,19.97
2019-04-05T13:04:20.752Z,19.99
2019-04-05T13:06:53.005Z,20.03
2019-04-05T13:09:26.036Z,20.07
2019-04-05T13:11:58.800Z,20.09
2019-04-05T13:14:30.794Z,20.10
2019-04-05T13:17:02.874Z,20.12
2019-04-05T13:19:35.069Z,20.12
2019-04-05T13:22:07.106Z,20.13
2019-04-05T13:24:40.260Z,20.16
2019-04-05T13:27:12.841Z,20.23
2019-04-05T13:29:45.122Z,20.31
2019-04-05T13:32:19.358Z,20.38
2019-04-05T13:34:51.135Z,20.43
2019-04-05T13:37:23.405Z,20.46
2019-04-05T13:39:55.346Z,20.46
2019-04-05T13:42:31.106Z,20.48
2019-04-05T13:45:01.329Z,20.49
2019-04-05T13:47:33.278Z,20.51
2019-04-05T13:50:11.027Z,20.51
2019-04-05T13:52:42.120Z,20.55
2019-04-05T13:55:14.524Z,20.58
2019-04-05T13:57:46.549Z,20.63
2019-04-05T14:00:19.256Z,20.63
2019-04-05T14:02:51.453Z,20.63
2019-04-05T14:05:23.427Z,20.64
2019-04-05T14:08:09.112Z,20.65
2019-04-05T14:10:29.022Z,20.67
2019-04-05T14:13:01.130Z,20.64
2019-04-05T14:15:33.151Z,20.59
2019-04-05T14:18:05.107Z,20.53
2019-04-05T14:20:37.055Z,20.47
2019-04-05T14:23:10.154Z,20.22
2019-04-05T14:25:42.093Z,20.41
2019-04-05T14:28:14.326Z,20.38
2019-04-05T14:30:46.629Z,20.38
2019-04-05T14:33:18.846Z,20.38
2019-04-05T14:35:52.528Z,20.38
2019-04-05T14:38:24.572Z,20.38
2019-04-05T14:40:56.545Z,20.41
2019-04-05T14:43:28.495Z,20.45
2019-04-05T14:46:02.774Z,20.49
2019-04-05T14:48:34.114Z,20.52
2019-04-05T14:51:06.160Z,20.56
2019-04-05T14:53:38.425Z,20.61
2019-04-05T14:56:10.395Z,20.64
2019-04-05T14:58:42.343Z,20.67
2019-04-05T15:01:15.509Z,20.68
2019-04-05T15:03:48.207Z,20.72
2019-04-05T15:06:20.646Z,20.71
2019-04-05T15:08:52.741Z,20.68
2019-04-05T15:11:28.727Z,20.65
2019-04-05T15:13:58.431Z,20.61
2019-04-05T15:16:30.477Z,20.57
2019-04-05T15:19:02.428Z,20.56
2019-04-05T15:21:34.834Z,20.56
2019-04-05T15:24:08.896Z,20.54
2019-04-05T15:26:40.959Z,20.52
2019-04-05T15:29:13.317Z,20.52
2019-04-05T15:31:45.303Z,20.52
2019-04-05T15:34:17.355Z,20.51
2019-04-05T15:36:49.311Z,20.51
2019-04-05T15:39:21.277Z,20.51
2019-04-05T15:41:53.247Z,20.52
2019-04-05T15:44:25.485Z,20.50
2019-04-05T15:46:57.706Z,20.45
2019-04-05T15:49:29.679Z,20.42
2019-04-05T15:52:01.646Z,20.37
2019-04-05T15:54:34.668Z,20.31
2019-04-05T15:57:06.666Z,20.25
2019-04-05T15:59:38.629Z,20.22
2019-04-05T16:02:10.593Z,20.18
2019-04-05T16:04:42.573Z,20.16
2019-04-05T16:07:14.828Z,20.15
2019-04-05T16:09:46.773Z,20.13
2019-04-05T16:12:21.681Z,20.11
2019-04-05T16:14:53.710Z,20.10
2019-04-05T16:17:25.732Z,20.09
2019-04-05T16:19:58.108Z,20.08
2019-04-05T16:22:31.457Z,20.07
2019-04-05T16:25:04.357Z,20.06
2019-04-05T16:27:36.345Z,20.05
2019-04-05T16:30:09.490Z,20.03
2019-04-05T16:32:41.507Z,20.02
2019-04-05T16:35:14.782Z,20.00
2019-04-05T16:37:46.905Z,19.98
2019-04-05T16:40:19.442Z,19.94
2019-04-05T16:43:01.853Z,19.91
2019-04-05T16:45:25.293Z,19.87
2019-04-05T16:47:57.514Z,19.82
2019-04-05T16:50:29.494Z,19.80
2019-04-05T16:53:01.427Z,19.77
2019-04-05T16:55:33.969Z,19.75
2019-04-05T16:58:05.928Z,19.70
2019-04-05T17:00:37.885Z,19.67
2019-04-05T17:03:09.869Z,19.61
2019-04-05T17:05:42.089Z,19.54
2019-04-05T17:08:14.305Z,19.46
2019-04-05T17:10:46.355Z,19.37
2019-04-05T17:13:18.324Z,19.32
2019-04-05T17:15:50.309Z,19.26
2019-04-05T17:18:22.275Z,19.21
2019-04-05T17:20:54.251Z,19.17
2019-04-05T17:23:26.225Z,19.13
2019-04-05T17:25:58.179Z,19.06
2019-04-05T17:28:30.136Z,19.01
2019-04-05T17:31:02.120Z,18.92
2019-04-05T17:33:34.330Z,18.82
2019-04-05T17:36:06.297Z,18.76
2019-04-05T17:38:41.239Z,18.71
2019-04-05T17:41:13.203Z,18.68
2019-04-05T17:43:46.138Z,18.63
2019-04-05T17:46:18.115Z,18.59
2019-04-05T17:48:52.004Z,18.56
2019-04-05T17:51:24.052Z,18.51
2019-04-05T17:53:56.076Z,18.44
2019-04-05T17:56:28.387Z,18.41
2019-04-05T17:59:01.292Z,18.37
2019-04-05T18:01:33.399Z,18.33
2019-04-05T18:04:05.349Z,18.30
2019-04-05T18:06:37.307Z,18.27
2019-04-05T18:09:09.992Z,18.23
2019-04-05T18:11:42.196Z,18.18
2019-04-05T18:14:14.347Z,18.15
2019-04-05T18:16:46.309Z,18.11
2019-04-05T18:19:18.301Z,18.08
2019-04-05T18:21:50.337Z,18.11
2019-04-05T18:24:22.467Z,18.08
2019-04-05T18:26:54.450Z,17.94
2019-04-05T18:29:26.485Z,17.80
2019-04-05T18:31:58.460Z,17.73
2019-04-05T18:34:30.424Z,17.71
2019-04-05T18:37:02.431Z,17.69
2019-04-05T18:39:34.895Z,17.68
2019-04-05T18:42:06.934Z,17.67
2019-04-05T18:44:38.903Z,17.64
2019-04-05T18:47:11.162Z,17.60
2019-04-05T18:49:43.113Z,17.55
2019-04-05T18:52:15.072Z,17.53
2019-04-05T18:54:47.208Z,17.52
2019-04-05T18:57:19.458Z,17.49
2019-04-05T18:59:52.405Z,17.48
2019-04-05T19:02:24.369Z,17.46
2019-04-05T19:04:56.347Z,17.44
2019-04-05T19:07:28.380Z,17.41
2019-04-05T19:10:00.347Z,17.38
2019-04-05T19:12:33.291Z,17.35
2019-04-05T19:15:08.954Z,17.29
2019-04-05T19:17:40.938Z,17.25
2019-04-05T19:20:13.137Z,17.19
2019-04-05T19:22:45.096Z,17.15
2019-04-05T19:25:17.129Z,17.14
2019-04-05T19:27:49.682Z,17.11
2019-04-05T19:48:35.078Z,16.69
2019-04-05T19:50:51.561Z,16.61
2019-04-05T19:53:23.534Z,16.53
2019-04-05T19:55:55.748Z,16.46
2019-04-05T19:58:27.726Z,16.40
2019-04-05T20:00:59.760Z,16.36
2019-04-05T20:03:31.823Z,16.31
2019-04-05T20:06:04.024Z,16.27
2019-04-05T20:08:36.260Z,16.24
2019-04-05T20:11:08.456Z,16.23
2019-04-05T20:13:40.471Z,16.20
2019-04-05T20:16:12.446Z,16.07
2019-04-05T20:18:44.476Z,16.19
2019-04-05T20:21:16.713Z,16.19
2019-04-05T20:23:49.294Z,16.18
2019-04-05T20:26:21.279Z,16.17
2019-04-05T20:28:53.327Z,16.16
2019-04-05T20:31:25.274Z,16.14
2019-04-05T20:33:57.318Z,16.11
2019-04-05T20:36:29.274Z,16.08
2019-04-05T20:39:01.576Z,16.05
2019-04-05T20:41:34.675Z,16.03
2019-04-05T20:44:06.646Z,16.01
2019-04-05T20:46:38.752Z,15.96
2019-04-05T20:49:11.983Z,15.91
2019-04-05T20:51:44.291Z,15.87
2019-04-05T20:54:24.262Z,15.82
2019-04-05T20:56:50.066Z,15.78
2019-04-05T20:59:22.048Z,15.75
2019-04-05T21:01:54.304Z,15.71
2019-04-05T21:04:26.263Z,15.71
2019-04-05T21:06:58.325Z,15.70
2019-04-05T21:09:30.428Z,15.69
2019-04-05T21:12:02.420Z,15.67
2019-04-05T21:14:34.439Z,15.66
2019-04-05T21:17:07.028Z,15.65
2019-04-05T21:19:38.989Z,15.62
2019-04-05T21:22:11.017Z,15.60
2019-04-05T21:24:42.994Z,15.56
2019-04-05T21:27:14.963Z,15.54
2019-04-05T21:29:46.931Z,15.53
2019-04-05T21:32:18.906Z,15.53
2019-04-05T21:34:51.016Z,15.52
2019-04-05T21:37:22.955Z,15.51
2019-04-05T21:39:54.969Z,15.47
2019-04-05T21:42:26.978Z,15.43
2019-04-05T21:44:58.934Z,15.38
2019-04-05T21:47:31.001Z,15.35
2019-04-05T21:50:03.262Z,15.33
2019-04-05T21:52:35.308Z,15.30
2019-04-05T21:55:10.376Z,15.25
2019-04-05T21:57:42.400Z,15.21
2019-04-05T22:00:28.118Z,15.16
2019-04-05T22:03:00.208Z,15.11
2019-04-05T22:05:32.234Z,15.06
2019-04-05T22:08:04.451Z,14.95
2019-04-05T22:10:36.408Z,14.90
2019-04-05T22:13:10.065Z,14.85
2019-04-05T22:15:42.063Z,14.82
2019-04-05T22:18:14.260Z,14.80
2019-04-05T22:20:46.237Z,14.77
2019-04-05T22:23:18.246Z,14.74
2019-04-05T22:25:50.321Z,14.72
2019-04-05T22:28:22.243Z,14.71
2019-04-05T22:30:54.467Z,14.70
2019-04-05T22:33:26.473Z,14.69
2019-04-05T22:35:58.430Z,14.66
2019-04-05T22:38:30.445Z,14.64
2019-04-05T22:41:02.769Z,14.63
2019-04-05T22:43:34.771Z,14.61
2019-04-05T22:46:06.859Z,14.60
2019-04-05T22:48:38.811Z,14.57
2019-04-05T22:51:11.096Z,14.54
2019-04-05T22:53:43.296Z,14.52
2019-04-05T22:56:15.394Z,14.49
2019-04-05T22:58:47.608Z,14.47
2019-04-05T23:01:19.570Z,14.47
2019-04-05T23:03:51.650Z,14.47
2019-04-05T23:06:23.998Z,14.48
2019-04-05T23:08:55.992Z,14.48
2019-04-05T23:11:28.037Z,14.46
2019-04-05T23:14:00.027Z,14.43
2019-04-05T23:16:32.035Z,14.44
2019-04-05T23:19:04.052Z,14.44
2019-04-05T23:21:35.983Z,14.44
2019-04-05T23:24:07.994Z,14.44
2019-04-05T23:26:40.200Z,14.43
2019-04-05T23:29:12.226Z,14.39
2019-04-05T23:31:44.162Z,14.37
2019-04-05T23:34:16.453Z,14.36
2019-04-05T23:36:48.457Z,14.35
2019-04-05T23:39:20.454Z,14.35
2019-04-05T23:41:52.383Z,14.35
2019-04-05T23:44:24.689Z,14.34
2019-04-05T23:46:56.702Z,14.34
2019-04-05T23:49:28.651Z,14.35
2019-04-05T23:52:00.669Z,14.35
2019-04-05T23:54:32.652Z,14.36
2019-04-05T23:57:04.664Z,14.37
2019-04-05T23:59:36.656Z,14.35
